sensor_id;sensor_type;location;lat;lon;timestamp;temperature;humidity
1297;DHT22;641;48.492;9.184;2022-12-18T00:00:42;-10.20;99.90
1297;DHT22;641;48.492;9.184;2022-12-18T00:03:08;-10.00;99.90
1297;DHT22;641;48.492;9.184;2022-12-18T00:05:33;-9.90;99.90
1297;DHT22;641;48.492;9.184;2022-12-18T00:07:59;-9.90;99.90
1297;DHT22;641;48.492;9.184;2022-12-18T00:10:25;-10.00;99.90
1297;DHT22;641;48.492;9.184;2022-12-18T00:12:50;-9.70;99.90
1297;DHT22;641;48.492;9.184;2022-12-18T00:15:16;-9.70;99.90
1297;DHT22;641;48.492;9.184;2022-12-18T00:17:41;-9.80;99.90
1297;DHT22;641;48.492;9.184;2022-12-18T00:20:08;-10.10;99.90
1297;DHT22;641;48.492;9.184;2022-12-18T00:22:33;-9.90;99.90
1297;DHT22;641;48.492;9.184;2022-12-18T00:24:59;-10.10;99.90
1297;DHT22;641;48.492;9.184;2022-12-18T00:27:25;-10.20;99.90
1297;DHT22;641;48.492;9.184;2022-12-18T00:29:50;-10.20;99.90
1297;DHT22;641;48.492;9.184;2022-12-18T00:32:16;-10.20;99.90
1297;DHT22;641;48.492;9.184;2022-12-18T00:34:42;-10.20;99.90
1297;DHT22;641;48.492;9.184;2022-12-18T00:37:07;-10.20;99.90
1297;DHT22;641;48.492;9.184;2022-12-18T00:39:33;-10.20;99.90
1297;DHT22;641;48.492;9.184;2022-12-18T00:41:58;-10.00;99.90
1297;DHT22;641;48.492;9.184;2022-12-18T00:44:42;-10.00;99.90
1297;DHT22;641;48.492;9.184;2022-12-18T00:47:08;-10.10;99.90
1297;DHT22;641;48.492;9.184;2022-12-18T00:49:33;-10.10;99.90
1297;DHT22;641;48.492;9.184;2022-12-18T00:51:59;-10.40;99.90
1297;DHT22;641;48.492;9.184;2022-12-18T00:54:25;-10.40;99.90
1297;DHT22;641;48.492;9.184;2022-12-18T00:56:50;-10.50;99.90
1297;DHT22;641;48.492;9.184;2022-12-18T00:59:17;-10.50;99.90
1297;DHT22;641;48.492;9.184;2022-12-18T01:01:43;-10.30;99.90
1297;DHT22;641;48.492;9.184;2022-12-18T01:04:09;-10.30;99.90
1297;DHT22;641;48.492;9.184;2022-12-18T01:06:34;-10.30;99.90
1297;DHT22;641;48.492;9.184;2022-12-18T01:09:00;-10.60;99.90
1297;DHT22;641;48.492;9.184;2022-12-18T01:11:25;-10.50;99.90
1297;DHT22;641;48.492;9.184;2022-12-18T01:13:53;-10.60;99.90
1297;DHT22;641;48.492;9.184;2022-12-18T01:16:19;-10.60;99.90
1297;DHT22;641;48.492;9.184;2022-12-18T01:18:45;-10.60;99.90
1297;DHT22;641;48.492;9.184;2022-12-18T01:21:13;-10.60;99.90
1297;DHT22;641;48.492;9.184;2022-12-18T01:23:39;-10.70;99.90
1297;DHT22;641;48.492;9.184;2022-12-18T01:26:15;-10.60;99.90
1297;DHT22;641;48.492;9.184;2022-12-18T01:28:42;-10.40;99.90
1297;DHT22;641;48.492;9.184;2022-12-18T01:33:38;-10.30;99.90
1297;DHT22;641;48.492;9.184;2022-12-18T01:36:04;-10.30;99.90
1297;DHT22;641;48.492;9.184;2022-12-18T01:38:30;-10.30;99.90
1297;DHT22;641;48.492;9.184;2022-12-18T01:41:00;-10.50;99.90
1297;DHT22;641;48.492;9.184;2022-12-18T01:43:50;-10.30;99.90
1297;DHT22;641;48.492;9.184;2022-12-18T01:46:19;-10.20;99.90
1297;DHT22;641;48.492;9.184;2022-12-18T01:48:47;-10.30;99.90
1297;DHT22;641;48.492;9.184;2022-12-18T01:51:14;-10.30;99.90
1297;DHT22;641;48.492;9.184;2022-12-18T01:53:41;-10.20;99.90
1297;DHT22;641;48.492;9.184;2022-12-18T01:56:08;-10.30;99.90
1297;DHT22;641;48.492;9.184;2022-12-18T01:58:51;-10.20;99.90
1297;DHT22;641;48.492;9.184;2022-12-18T02:01:20;-10.40;99.90
1297;DHT22;641;48.492;9.184;2022-12-18T02:03:47;-10.30;99.90
1297;DHT22;641;48.492;9.184;2022-12-18T02:06:18;-10.40;99.90
1297;DHT22;641;48.492;9.184;2022-12-18T02:09:02;-10.60;99.90
1297;DHT22;641;48.492;9.184;2022-12-18T02:11:59;-10.70;99.90
1297;DHT22;641;48.492;9.184;2022-12-18T02:17:16;-10.20;99.90
1297;DHT22;641;48.492;9.184;2022-12-18T02:20:21;-10.10;99.90
1297;DHT22;641;48.492;9.184;2022-12-18T02:25:58;-10.00;99.90
1297;DHT22;641;48.492;9.184;2022-12-18T02:28:31;-10.00;99.90
1297;DHT22;641;48.492;9.184;2022-12-18T02:31:01;-10.10;99.90
1297;DHT22;641;48.492;9.184;2022-12-18T02:33:30;-10.10;99.90
1297;DHT22;641;48.492;9.184;2022-12-18T02:35:58;-10.10;99.90
1297;DHT22;641;48.492;9.184;2022-12-18T02:38:25;-10.00;99.90
1297;DHT22;641;48.492;9.184;2022-12-18T02:40:52;-10.30;99.90
1297;DHT22;641;48.492;9.184;2022-12-18T02:43:18;-10.40;99.90
1297;DHT22;641;48.492;9.184;2022-12-18T02:45:56;-10.40;99.90
1297;DHT22;641;48.492;9.184;2022-12-18T02:48:28;-10.10;99.90
1297;DHT22;641;48.492;9.184;2022-12-18T02:51:20;-10.30;99.90
1297;DHT22;641;48.492;9.184;2022-12-18T02:53:53;-10.40;99.90
1297;DHT22;641;48.492;9.184;2022-12-18T02:56:35;-10.30;99.90
1297;DHT22;641;48.492;9.184;2022-12-18T02:59:30;-10.30;99.90
1297;DHT22;641;48.492;9.184;2022-12-18T03:02:26;-10.30;99.90
1297;DHT22;641;48.492;9.184;2022-12-18T03:07:45;-10.00;99.90
1297;DHT22;641;48.492;9.184;2022-12-18T03:10:16;-10.30;99.90
1297;DHT22;641;48.492;9.184;2022-12-18T03:12:51;-10.20;99.90
1297;DHT22;641;48.492;9.184;2022-12-18T03:15:43;-10.00;99.90
1297;DHT22;641;48.492;9.184;2022-12-18T03:18:16;-10.00;99.90
1297;DHT22;641;48.492;9.184;2022-12-18T03:20:44;-10.00;99.90
1297;DHT22;641;48.492;9.184;2022-12-18T03:23:15;-10.10;99.90
1297;DHT22;641;48.492;9.184;2022-12-18T03:25:44;-10.00;99.90
1297;DHT22;641;48.492;9.184;2022-12-18T03:28:13;-10.10;99.90
1297;DHT22;641;48.492;9.184;2022-12-18T03:30:41;-10.20;99.90
1297;DHT22;641;48.492;9.184;2022-12-18T03:35:52;-10.30;99.90
1297;DHT22;641;48.492;9.184;2022-12-18T03:38:18;-10.10;99.90
1297;DHT22;641;48.492;9.184;2022-12-18T03:46:09;-10.10;99.90
1297;DHT22;641;48.492;9.184;2022-12-18T03:48:43;-10.40;99.90
1297;DHT22;641;48.492;9.184;2022-12-18T03:51:40;-10.30;99.90
1297;DHT22;641;48.492;9.184;2022-12-18T03:54:09;-10.20;99.90
1297;DHT22;641;48.492;9.184;2022-12-18T03:56:39;-10.30;99.90
1297;DHT22;641;48.492;9.184;2022-12-18T03:59:08;-10.30;99.90
1297;DHT22;641;48.492;9.184;2022-12-18T04:01:41;-10.10;99.90
1297;DHT22;641;48.492;9.184;2022-12-18T04:04:08;-10.10;99.90
1297;DHT22;641;48.492;9.184;2022-12-18T04:06:36;-10.20;99.90
1297;DHT22;641;48.492;9.184;2022-12-18T04:09:02;-10.10;99.90
1297;DHT22;641;48.492;9.184;2022-12-18T04:11:29;-10.40;99.90
1297;DHT22;641;48.492;9.184;2022-12-18T04:13:58;-10.40;99.90
1297;DHT22;641;48.492;9.184;2022-12-18T04:16:27;-10.20;99.90
1297;DHT22;641;48.492;9.184;2022-12-18T04:18:54;-10.20;99.90
1297;DHT22;641;48.492;9.184;2022-12-18T04:21:20;-10.10;99.90
1297;DHT22;641;48.492;9.184;2022-12-18T04:23:46;-10.30;99.90
1297;DHT22;641;48.492;9.184;2022-12-18T04:26:11;-10.30;99.90
1297;DHT22;641;48.492;9.184;2022-12-18T04:28:37;-10.40;99.90
1297;DHT22;641;48.492;9.184;2022-12-18T04:31:03;-10.30;99.90
1297;DHT22;641;48.492;9.184;2022-12-18T04:33:28;-10.30;99.90
1297;DHT22;641;48.492;9.184;2022-12-18T04:35:54;-10.20;99.90
1297;DHT22;641;48.492;9.184;2022-12-18T04:38:20;-10.30;99.90
1297;DHT22;641;48.492;9.184;2022-12-18T04:40:45;-10.30;99.90
1297;DHT22;641;48.492;9.184;2022-12-18T04:43:11;-10.40;99.90
1297;DHT22;641;48.492;9.184;2022-12-18T04:45:36;-10.50;99.90
1297;DHT22;641;48.492;9.184;2022-12-18T04:48:03;-10.30;99.90
1297;DHT22;641;48.492;9.184;2022-12-18T04:50:29;-10.40;99.90
1297;DHT22;641;48.492;9.184;2022-12-18T04:52:55;-10.10;99.90
1297;DHT22;641;48.492;9.184;2022-12-18T04:55:21;-10.20;99.90
1297;DHT22;641;48.492;9.184;2022-12-18T04:57:46;-10.20;99.90
1297;DHT22;641;48.492;9.184;2022-12-18T05:00:12;-10.40;99.90
1297;DHT22;641;48.492;9.184;2022-12-18T05:02:38;-10.30;99.90
1297;DHT22;641;48.492;9.184;2022-12-18T05:05:04;-10.30;99.90
1297;DHT22;641;48.492;9.184;2022-12-18T05:07:30;-10.20;99.90
1297;DHT22;641;48.492;9.184;2022-12-18T05:09:55;-10.40;99.90
1297;DHT22;641;48.492;9.184;2022-12-18T05:12:23;-10.30;99.90
1297;DHT22;641;48.492;9.184;2022-12-18T05:14:48;-10.40;99.90
1297;DHT22;641;48.492;9.184;2022-12-18T05:17:14;-10.60;99.90
1297;DHT22;641;48.492;9.184;2022-12-18T05:19:39;-10.70;99.90
1297;DHT22;641;48.492;9.184;2022-12-18T05:22:05;-10.80;99.90
1297;DHT22;641;48.492;9.184;2022-12-18T05:24:33;-10.90;99.90
1297;DHT22;641;48.492;9.184;2022-12-18T05:26:59;-11.00;99.90
1297;DHT22;641;48.492;9.184;2022-12-18T05:29:25;-10.60;99.90
1297;DHT22;641;48.492;9.184;2022-12-18T05:31:50;-10.50;99.90
1297;DHT22;641;48.492;9.184;2022-12-18T05:34:16;-10.50;99.90
1297;DHT22;641;48.492;9.184;2022-12-18T05:36:41;-10.30;99.90
1297;DHT22;641;48.492;9.184;2022-12-18T05:39:07;-10.60;99.90
1297;DHT22;641;48.492;9.184;2022-12-18T05:41:33;-10.70;99.90
1297;DHT22;641;48.492;9.184;2022-12-18T05:43:59;-10.70;99.90
1297;DHT22;641;48.492;9.184;2022-12-18T05:46:24;-10.80;99.90
1297;DHT22;641;48.492;9.184;2022-12-18T05:48:50;-11.00;99.90
1297;DHT22;641;48.492;9.184;2022-12-18T05:51:18;-11.00;99.90
1297;DHT22;641;48.492;9.184;2022-12-18T05:53:44;-10.80;99.90
1297;DHT22;641;48.492;9.184;2022-12-18T05:56:13;-10.30;99.90
1297;DHT22;641;48.492;9.184;2022-12-18T05:58:39;-10.60;99.90
1297;DHT22;641;48.492;9.184;2022-12-18T06:01:16;-10.60;99.90
1297;DHT22;641;48.492;9.184;2022-12-18T06:03:42;-10.70;99.90
1297;DHT22;641;48.492;9.184;2022-12-18T06:06:16;-10.80;99.90
1297;DHT22;641;48.492;9.184;2022-12-18T06:08:41;-10.80;99.90
1297;DHT22;641;48.492;9.184;2022-12-18T06:11:07;-11.00;99.90
1297;DHT22;641;48.492;9.184;2022-12-18T06:13:33;-10.80;99.90
1297;DHT22;641;48.492;9.184;2022-12-18T06:16:02;-10.80;99.90
1297;DHT22;641;48.492;9.184;2022-12-18T06:18:28;-10.50;99.90
1297;DHT22;641;48.492;9.184;2022-12-18T06:20:57;-10.60;99.90
1297;DHT22;641;48.492;9.184;2022-12-18T06:23:23;-10.70;99.90
1297;DHT22;641;48.492;9.184;2022-12-18T06:25:48;-10.80;99.90
1297;DHT22;641;48.492;9.184;2022-12-18T06:28:14;-10.80;99.90
1297;DHT22;641;48.492;9.184;2022-12-18T06:30:40;-11.10;99.90
1297;DHT22;641;48.492;9.184;2022-12-18T06:33:08;-10.90;99.90
1297;DHT22;641;48.492;9.184;2022-12-18T06:35:33;-10.90;99.90
1297;DHT22;641;48.492;9.184;2022-12-18T06:38:08;-10.70;99.90
1297;DHT22;641;48.492;9.184;2022-12-18T06:40:35;-10.80;99.90
1297;DHT22;641;48.492;9.184;2022-12-18T06:43:01;-11.00;99.90
1297;DHT22;641;48.492;9.184;2022-12-18T06:45:27;-10.70;99.90
1297;DHT22;641;48.492;9.184;2022-12-18T06:47:53;-10.80;99.90
1297;DHT22;641;48.492;9.184;2022-12-18T06:50:19;-10.70;99.90
1297;DHT22;641;48.492;9.184;2022-12-18T06:52:44;-10.80;99.90
1297;DHT22;641;48.492;9.184;2022-12-18T06:55:10;-10.80;99.90
1297;DHT22;641;48.492;9.184;2022-12-18T06:57:36;-10.90;99.90
1297;DHT22;641;48.492;9.184;2022-12-18T07:00:04;-10.90;99.90
1297;DHT22;641;48.492;9.184;2022-12-18T07:02:30;-10.90;99.90
1297;DHT22;641;48.492;9.184;2022-12-18T07:04:56;-10.80;99.90
1297;DHT22;641;48.492;9.184;2022-12-18T07:07:21;-10.90;99.90
1297;DHT22;641;48.492;9.184;2022-12-18T07:09:48;-10.80;99.90
1297;DHT22;641;48.492;9.184;2022-12-18T07:12:14;-10.80;99.90
1297;DHT22;641;48.492;9.184;2022-12-18T07:14:40;-10.90;99.90
1297;DHT22;641;48.492;9.184;2022-12-18T07:17:05;-10.90;99.90
1297;DHT22;641;48.492;9.184;2022-12-18T07:19:31;-10.60;99.90
1297;DHT22;641;48.492;9.184;2022-12-18T07:21:56;-10.90;99.90
1297;DHT22;641;48.492;9.184;2022-12-18T07:24:22;-10.90;99.90
1297;DHT22;641;48.492;9.184;2022-12-18T07:26:47;-10.70;99.90
1297;DHT22;641;48.492;9.184;2022-12-18T07:29:13;-10.70;99.90
1297;DHT22;641;48.492;9.184;2022-12-18T07:31:39;-10.70;99.90
1297;DHT22;641;48.492;9.184;2022-12-18T07:34:04;-10.50;99.90
1297;DHT22;641;48.492;9.184;2022-12-18T07:36:30;-10.70;99.90
1297;DHT22;641;48.492;9.184;2022-12-18T07:38:55;-10.80;99.90
1297;DHT22;641;48.492;9.184;2022-12-18T07:41:21;-11.00;99.90
1297;DHT22;641;48.492;9.184;2022-12-18T07:43:47;-10.90;99.90
1297;DHT22;641;48.492;9.184;2022-12-18T07:46:14;-10.80;99.90
1297;DHT22;641;48.492;9.184;2022-12-18T07:48:41;-10.80;99.90
1297;DHT22;641;48.492;9.184;2022-12-18T07:51:07;-10.80;99.90
1297;DHT22;641;48.492;9.184;2022-12-18T07:53:34;-10.80;99.90
1297;DHT22;641;48.492;9.184;2022-12-18T07:56:03;-10.90;99.90
1297;DHT22;641;48.492;9.184;2022-12-18T07:58:30;-10.80;99.90
1297;DHT22;641;48.492;9.184;2022-12-18T08:01:22;-10.90;99.90
1297;DHT22;641;48.492;9.184;2022-12-18T08:03:48;-10.70;99.90
1297;DHT22;641;48.492;9.184;2022-12-18T08:06:14;-11.00;99.90
1297;DHT22;641;48.492;9.184;2022-12-18T08:08:39;-10.90;99.90
1297;DHT22;641;48.492;9.184;2022-12-18T08:11:06;-10.70;99.90
1297;DHT22;641;48.492;9.184;2022-12-18T08:13:32;-10.90;99.90
1297;DHT22;641;48.492;9.184;2022-12-18T08:15:58;-10.70;99.90
1297;DHT22;641;48.492;9.184;2022-12-18T08:18:24;-11.10;99.90
1297;DHT22;641;48.492;9.184;2022-12-18T08:20:50;-10.80;99.90
1297;DHT22;641;48.492;9.184;2022-12-18T08:23:16;-10.80;99.90
1297;DHT22;641;48.492;9.184;2022-12-18T08:25:42;-10.50;99.90
1297;DHT22;641;48.492;9.184;2022-12-18T08:28:07;-10.20;99.90
1297;DHT22;641;48.492;9.184;2022-12-18T08:30:33;-10.00;99.90
1297;DHT22;641;48.492;9.184;2022-12-18T08:32:58;-10.40;99.90
1297;DHT22;641;48.492;9.184;2022-12-18T08:35:24;-10.50;99.90
1297;DHT22;641;48.492;9.184;2022-12-18T08:37:50;-10.60;99.90
1297;DHT22;641;48.492;9.184;2022-12-18T08:40:15;-10.60;99.90
1297;DHT22;641;48.492;9.184;2022-12-18T08:42:41;-10.50;99.90
1297;DHT22;641;48.492;9.184;2022-12-18T08:45:25;-10.50;99.90
1297;DHT22;641;48.492;9.184;2022-12-18T08:47:51;-10.30;99.90
1297;DHT22;641;48.492;9.184;2022-12-18T08:50:17;-10.10;99.90
1297;DHT22;641;48.492;9.184;2022-12-18T08:52:43;-10.30;99.90
1297;DHT22;641;48.492;9.184;2022-12-18T08:55:09;-9.90;99.90
1297;DHT22;641;48.492;9.184;2022-12-18T08:57:35;-9.80;99.90
1297;DHT22;641;48.492;9.184;2022-12-18T09:00:01;-9.50;99.90
1297;DHT22;641;48.492;9.184;2022-12-18T09:02:26;-9.30;99.90
1297;DHT22;641;48.492;9.184;2022-12-18T09:04:52;-9.20;99.90
1297;DHT22;641;48.492;9.184;2022-12-18T09:07:17;-9.00;99.90
1297;DHT22;641;48.492;9.184;2022-12-18T09:09:43;-8.90;99.90
1297;DHT22;641;48.492;9.184;2022-12-18T09:12:08;-8.50;99.90
1297;DHT22;641;48.492;9.184;2022-12-18T09:14:34;-8.60;99.90
1297;DHT22;641;48.492;9.184;2022-12-18T09:16:59;-8.30;99.90
1297;DHT22;641;48.492;9.184;2022-12-18T09:19:25;-8.30;99.90
1297;DHT22;641;48.492;9.184;2022-12-18T09:21:51;-8.80;99.90
1297;DHT22;641;48.492;9.184;2022-12-18T09:24:16;-9.20;99.90
1297;DHT22;641;48.492;9.184;2022-12-18T09:26:42;-9.20;99.90
1297;DHT22;641;48.492;9.184;2022-12-18T09:29:08;-9.20;99.90
1297;DHT22;641;48.492;9.184;2022-12-18T09:31:35;-9.20;99.90
1297;DHT22;641;48.492;9.184;2022-12-18T09:34:01;-9.20;99.90
1297;DHT22;641;48.492;9.184;2022-12-18T09:36:26;-9.20;99.90
1297;DHT22;641;48.492;9.184;2022-12-18T09:38:52;-9.30;99.90
1297;DHT22;641;48.492;9.184;2022-12-18T09:41:39;-9.30;99.90
1297;DHT22;641;48.492;9.184;2022-12-18T09:44:36;-9.10;99.90
1297;DHT22;641;48.492;9.184;2022-12-18T09:47:09;-9.00;99.90
1297;DHT22;641;48.492;9.184;2022-12-18T09:49:41;-8.80;99.90
1297;DHT22;641;48.492;9.184;2022-12-18T09:54:40;-8.90;99.90
1297;DHT22;641;48.492;9.184;2022-12-18T09:57:14;-8.90;99.90
1297;DHT22;641;48.492;9.184;2022-12-18T09:59:43;-8.80;99.90
1297;DHT22;641;48.492;9.184;2022-12-18T10:02:23;-8.70;99.90
1297;DHT22;641;48.492;9.184;2022-12-18T10:05:12;-8.60;99.90
1297;DHT22;641;48.492;9.184;2022-12-18T10:07:49;-8.50;99.90
1297;DHT22;641;48.492;9.184;2022-12-18T10:15:32;-7.80;99.90
1297;DHT22;641;48.492;9.184;2022-12-18T10:18:23;-7.80;99.90
1297;DHT22;641;48.492;9.184;2022-12-18T10:20:54;-7.90;99.90
1297;DHT22;641;48.492;9.184;2022-12-18T10:26:32;-7.40;99.90
1297;DHT22;641;48.492;9.184;2022-12-18T10:28:59;-7.00;99.90
1297;DHT22;641;48.492;9.184;2022-12-18T10:31:24;-6.80;99.90
1297;DHT22;641;48.492;9.184;2022-12-18T10:33:51;-6.80;99.90
1297;DHT22;641;48.492;9.184;2022-12-18T10:36:18;-6.70;99.90
1297;DHT22;641;48.492;9.184;2022-12-18T10:38:45;-6.40;99.90
1297;DHT22;641;48.492;9.184;2022-12-18T10:46:41;-5.70;99.90
1297;DHT22;641;48.492;9.184;2022-12-18T10:49:19;-6.10;99.90
1297;DHT22;641;48.492;9.184;2022-12-18T10:51:45;-6.50;99.90
1297;DHT22;641;48.492;9.184;2022-12-18T10:54:22;-6.60;99.90
1297;DHT22;641;48.492;9.184;2022-12-18T10:56:49;-6.70;99.90
1297;DHT22;641;48.492;9.184;2022-12-18T10:59:17;-6.40;99.90
1297;DHT22;641;48.492;9.184;2022-12-18T11:04:21;-6.10;99.90
1297;DHT22;641;48.492;9.184;2022-12-18T11:06:59;-6.00;99.90
1297;DHT22;641;48.492;9.184;2022-12-18T11:09:30;-5.80;99.90
1297;DHT22;641;48.492;9.184;2022-12-18T11:12:00;-5.80;99.90
1297;DHT22;641;48.492;9.184;2022-12-18T11:14:41;-5.70;99.90
1297;DHT22;641;48.492;9.184;2022-12-18T11:17:19;-5.30;99.90
1297;DHT22;641;48.492;9.184;2022-12-18T11:19:56;-5.40;99.90
1297;DHT22;641;48.492;9.184;2022-12-18T11:27:37;-5.00;99.90
1297;DHT22;641;48.492;9.184;2022-12-18T11:38:25;-4.70;99.90
1297;DHT22;641;48.492;9.184;2022-12-18T11:43:43;-5.00;99.90
1297;DHT22;641;48.492;9.184;2022-12-18T11:46:14;-5.30;99.90
1297;DHT22;641;48.492;9.184;2022-12-18T11:48:49;-4.90;99.90
1297;DHT22;641;48.492;9.184;2022-12-18T11:51:37;-4.80;99.90
1297;DHT22;641;48.492;9.184;2022-12-18T11:54:13;-4.80;99.90
1297;DHT22;641;48.492;9.184;2022-12-18T11:57:03;-4.70;99.90
1297;DHT22;641;48.492;9.184;2022-12-18T11:59:45;-4.60;99.90
1297;DHT22;641;48.492;9.184;2022-12-18T12:05:20;-4.40;99.90
1297;DHT22;641;48.492;9.184;2022-12-18T12:07:57;-4.40;99.90
1297;DHT22;641;48.492;9.184;2022-12-18T12:13:23;-4.20;99.90
1297;DHT22;641;48.492;9.184;2022-12-18T12:18:54;-4.20;99.90
1297;DHT22;641;48.492;9.184;2022-12-18T12:21:40;-4.20;99.90
1297;DHT22;641;48.492;9.184;2022-12-18T12:24:51;-4.20;99.90
1297;DHT22;641;48.492;9.184;2022-12-18T12:27:37;-4.10;99.90
1297;DHT22;641;48.492;9.184;2022-12-18T12:30:10;-4.10;99.90
1297;DHT22;641;48.492;9.184;2022-12-18T12:35:44;-3.60;99.90
1297;DHT22;641;48.492;9.184;2022-12-18T12:38:25;-3.30;99.90
1297;DHT22;641;48.492;9.184;2022-12-18T12:41:02;-3.50;99.90
1297;DHT22;641;48.492;9.184;2022-12-18T12:46:07;-3.40;99.90
1297;DHT22;641;48.492;9.184;2022-12-18T12:48:58;-3.70;99.90
1297;DHT22;641;48.492;9.184;2022-12-18T12:51:35;-3.80;99.90
1297;DHT22;641;48.492;9.184;2022-12-18T12:54:11;-3.80;99.90
1297;DHT22;641;48.492;9.184;2022-12-18T12:59:32;-3.50;99.90
1297;DHT22;641;48.492;9.184;2022-12-18T13:02:16;-3.50;99.90
1297;DHT22;641;48.492;9.184;2022-12-18T13:05:05;-3.20;99.90
1297;DHT22;641;48.492;9.184;2022-12-18T13:07:41;-3.20;99.90
1297;DHT22;641;48.492;9.184;2022-12-18T13:10:25;-3.20;99.90
1297;DHT22;641;48.492;9.184;2022-12-18T13:13:09;-2.90;99.90
1297;DHT22;641;48.492;9.184;2022-12-18T13:16:06;-2.70;99.90
1297;DHT22;641;48.492;9.184;2022-12-18T13:18:32;-2.50;99.90
1297;DHT22;641;48.492;9.184;2022-12-18T13:34:26;-2.30;99.90
1297;DHT22;641;48.492;9.184;2022-12-18T13:36:54;-2.20;99.90
1297;DHT22;641;48.492;9.184;2022-12-18T13:42:31;-1.90;99.90
1297;DHT22;641;48.492;9.184;2022-12-18T13:44:59;-1.90;99.90
1297;DHT22;641;48.492;9.184;2022-12-18T13:47:33;-1.90;99.90
1297;DHT22;641;48.492;9.184;2022-12-18T13:50:00;-2.00;99.90
1297;DHT22;641;48.492;9.184;2022-12-18T13:52:28;-2.00;99.90
1297;DHT22;641;48.492;9.184;2022-12-18T13:54:56;-1.90;99.90
1297;DHT22;641;48.492;9.184;2022-12-18T13:57:31;-1.90;99.90
1297;DHT22;641;48.492;9.184;2022-12-18T13:59:58;-1.80;99.90
1297;DHT22;641;48.492;9.184;2022-12-18T14:02:27;-1.70;99.90
1297;DHT22;641;48.492;9.184;2022-12-18T14:04:53;-1.70;99.90
1297;DHT22;641;48.492;9.184;2022-12-18T14:07:29;-1.70;99.90
1297;DHT22;641;48.492;9.184;2022-12-18T14:09:57;-1.80;99.90
1297;DHT22;641;48.492;9.184;2022-12-18T14:12:26;-1.70;99.90
1297;DHT22;641;48.492;9.184;2022-12-18T14:15:41;-1.70;99.90
1297;DHT22;641;48.492;9.184;2022-12-18T14:20:44;-1.90;99.90
1297;DHT22;641;48.492;9.184;2022-12-18T14:25:57;-1.80;99.90
1297;DHT22;641;48.492;9.184;2022-12-18T14:28:24;-1.90;99.90
1297;DHT22;641;48.492;9.184;2022-12-18T14:30:51;-2.00;99.90
1297;DHT22;641;48.492;9.184;2022-12-18T14:33:19;-2.00;99.90
1297;DHT22;641;48.492;9.184;2022-12-18T14:35:58;-2.10;99.90
1297;DHT22;641;48.492;9.184;2022-12-18T14:38:39;-2.10;99.90
1297;DHT22;641;48.492;9.184;2022-12-18T14:41:13;-2.10;99.90
1297;DHT22;641;48.492;9.184;2022-12-18T14:43:41;-2.20;99.90
1297;DHT22;641;48.492;9.184;2022-12-18T14:48:59;-2.40;99.90
1297;DHT22;641;48.492;9.184;2022-12-18T14:51:27;-2.40;99.90
1297;DHT22;641;48.492;9.184;2022-12-18T14:53:53;-2.40;99.90
1297;DHT22;641;48.492;9.184;2022-12-18T14:56:25;-2.30;99.90
1297;DHT22;641;48.492;9.184;2022-12-18T14:58:57;-2.40;99.90
1297;DHT22;641;48.492;9.184;2022-12-18T15:01:27;-2.40;99.90
1297;DHT22;641;48.492;9.184;2022-12-18T15:03:54;-2.40;99.90
1297;DHT22;641;48.492;9.184;2022-12-18T15:06:35;-2.50;99.90
1297;DHT22;641;48.492;9.184;2022-12-18T15:09:04;-2.50;99.90
1297;DHT22;641;48.492;9.184;2022-12-18T15:11:35;-2.50;99.90
1297;DHT22;641;48.492;9.184;2022-12-18T15:14:21;-2.50;99.90
1297;DHT22;641;48.492;9.184;2022-12-18T15:16:54;-2.60;99.90
1297;DHT22;641;48.492;9.184;2022-12-18T15:19:22;-2.60;99.90
1297;DHT22;641;48.492;9.184;2022-12-18T15:21:50;-2.70;99.90
1297;DHT22;641;48.492;9.184;2022-12-18T15:24:23;-2.60;99.90
1297;DHT22;641;48.492;9.184;2022-12-18T15:26:49;-2.50;99.90
1297;DHT22;641;48.492;9.184;2022-12-18T15:29:20;-2.50;99.90
1297;DHT22;641;48.492;9.184;2022-12-18T15:31:59;-2.60;99.90
1297;DHT22;641;48.492;9.184;2022-12-18T15:34:25;-2.70;99.90
1297;DHT22;641;48.492;9.184;2022-12-18T15:36:51;-2.70;99.90
1297;DHT22;641;48.492;9.184;2022-12-18T15:39:17;-2.60;99.90
1297;DHT22;641;48.492;9.184;2022-12-18T15:41:42;-2.70;99.90
1297;DHT22;641;48.492;9.184;2022-12-18T15:44:28;-2.70;99.90
1297;DHT22;641;48.492;9.184;2022-12-18T15:46:55;-2.60;99.90
1297;DHT22;641;48.492;9.184;2022-12-18T15:49:21;-2.50;99.90
1297;DHT22;641;48.492;9.184;2022-12-18T15:51:51;-2.60;99.90
1297;DHT22;641;48.492;9.184;2022-12-18T15:54:17;-2.30;99.90
1297;DHT22;641;48.492;9.184;2022-12-18T15:57:03;-2.50;99.90
1297;DHT22;641;48.492;9.184;2022-12-18T15:59:47;-2.60;99.90
1297;DHT22;641;48.492;9.184;2022-12-18T16:02:16;-2.60;99.90
1297;DHT22;641;48.492;9.184;2022-12-18T16:04:42;-2.60;99.90
1297;DHT22;641;48.492;9.184;2022-12-18T16:07:09;-2.70;99.90
1297;DHT22;641;48.492;9.184;2022-12-18T16:09:35;-2.80;99.90
1297;DHT22;641;48.492;9.184;2022-12-18T16:12:01;-2.80;99.90
1297;DHT22;641;48.492;9.184;2022-12-18T16:14:29;-2.70;99.90
1297;DHT22;641;48.492;9.184;2022-12-18T16:16:57;-2.60;99.90
1297;DHT22;641;48.492;9.184;2022-12-18T16:19:23;-2.70;99.90
1297;DHT22;641;48.492;9.184;2022-12-18T16:21:51;-2.70;99.90
1297;DHT22;641;48.492;9.184;2022-12-18T16:24:22;-2.70;99.90
1297;DHT22;641;48.492;9.184;2022-12-18T16:26:49;-2.80;99.90
1297;DHT22;641;48.492;9.184;2022-12-18T16:29:17;-2.70;99.90
1297;DHT22;641;48.492;9.184;2022-12-18T16:31:43;-2.70;99.90
1297;DHT22;641;48.492;9.184;2022-12-18T16:34:26;-2.80;99.90
1297;DHT22;641;48.492;9.184;2022-12-18T16:36:57;-2.80;99.90
1297;DHT22;641;48.492;9.184;2022-12-18T16:39:24;-2.60;99.90
1297;DHT22;641;48.492;9.184;2022-12-18T16:41:50;-2.70;99.90
1297;DHT22;641;48.492;9.184;2022-12-18T16:44:16;-2.70;99.90
1297;DHT22;641;48.492;9.184;2022-12-18T16:46:42;-2.50;99.90
1297;DHT22;641;48.492;9.184;2022-12-18T16:49:11;-2.40;99.90
1297;DHT22;641;48.492;9.184;2022-12-18T16:51:37;-2.40;99.90
1297;DHT22;641;48.492;9.184;2022-12-18T16:54:03;-2.30;99.90
1297;DHT22;641;48.492;9.184;2022-12-18T16:56:28;-2.10;99.90
1297;DHT22;641;48.492;9.184;2022-12-18T16:58:56;-2.20;99.90
1297;DHT22;641;48.492;9.184;2022-12-18T17:01:24;-2.60;99.90
1297;DHT22;641;48.492;9.184;2022-12-18T17:04:01;-2.60;99.90
1297;DHT22;641;48.492;9.184;2022-12-18T17:06:28;-2.40;99.90
1297;DHT22;641;48.492;9.184;2022-12-18T17:08:56;-2.40;99.90
1297;DHT22;641;48.492;9.184;2022-12-18T17:11:27;-2.30;99.90
1297;DHT22;641;48.492;9.184;2022-12-18T17:13:52;-2.40;99.90
1297;DHT22;641;48.492;9.184;2022-12-18T17:16:19;-2.40;99.90
1297;DHT22;641;48.492;9.184;2022-12-18T17:18:45;-2.40;99.90
1297;DHT22;641;48.492;9.184;2022-12-18T17:21:11;-2.40;99.90
1297;DHT22;641;48.492;9.184;2022-12-18T17:23:39;-2.40;99.90
1297;DHT22;641;48.492;9.184;2022-12-18T17:26:05;-2.40;99.90
1297;DHT22;641;48.492;9.184;2022-12-18T17:28:33;-2.30;99.90
1297;DHT22;641;48.492;9.184;2022-12-18T17:30:59;-2.50;99.90
1297;DHT22;641;48.492;9.184;2022-12-18T17:33:25;-2.40;99.90
1297;DHT22;641;48.492;9.184;2022-12-18T17:35:51;-2.50;99.90
1297;DHT22;641;48.492;9.184;2022-12-18T17:38:16;-2.50;99.90
1297;DHT22;641;48.492;9.184;2022-12-18T17:40:42;-2.50;99.90
1297;DHT22;641;48.492;9.184;2022-12-18T17:43:09;-2.40;99.90
1297;DHT22;641;48.492;9.184;2022-12-18T17:45:39;-2.20;99.90
1297;DHT22;641;48.492;9.184;2022-12-18T17:48:06;-2.50;99.90
1297;DHT22;641;48.492;9.184;2022-12-18T17:50:32;-2.80;99.90
1297;DHT22;641;48.492;9.184;2022-12-18T17:52:58;-2.80;99.90
1297;DHT22;641;48.492;9.184;2022-12-18T17:55:24;-2.90;99.90
1297;DHT22;641;48.492;9.184;2022-12-18T17:57:50;-3.00;99.90
1297;DHT22;641;48.492;9.184;2022-12-18T18:00:16;-3.10;99.90
1297;DHT22;641;48.492;9.184;2022-12-18T18:02:43;-2.90;99.90